createdAt,value
2022-10-23T00:00:05.333Z,9.583
2022-10-23T00:01:05.267Z,9.742
2022-10-23T00:02:05.326Z,9.831
2022-10-23T00:03:05.325Z,9.852
2022-10-23T00:04:05.350Z,9.83
2022-10-23T00:05:05.381Z,9.821
2022-10-23T00:06:05.403Z,9.78
2022-10-23T00:07:05.441Z,9.701
2022-10-23T00:08:05.469Z,9.645
2022-10-23T00:09:05.493Z,9.616
2022-10-23T00:10:05.517Z,9.582
2022-10-23T00:11:05.549Z,9.559
2022-10-23T00:12:05.574Z,9.573
2022-10-23T00:13:05.608Z,9.536
2022-10-23T00:14:05.640Z,9.508
2022-10-23T00:15:05.670Z,9.494
2022-10-23T00:16:05.699Z,9.556
2022-10-23T00:17:05.722Z,9.5
2022-10-23T00:18:05.756Z,9.4
2022-10-23T00:19:05.905Z,9.391
2022-10-23T00:20:05.822Z,9.334
2022-10-23T00:21:05.855Z,9.348
2022-10-23T00:22:05.890Z,9.305
2022-10-23T00:23:05.927Z,9.338
2022-10-23T00:24:06.008Z,9.31
2022-10-23T00:25:05.994Z,9.31
2022-10-23T00:26:06.023Z,9.266
2022-10-23T00:27:06.049Z,9.14
2022-10-23T00:28:06.103Z,9.14
2022-10-23T00:29:06.122Z,9.164
2022-10-23T00:30:06.150Z,9.198
2022-10-23T00:31:06.179Z,9.184
2022-10-23T00:32:06.212Z,9.188
2022-10-23T00:33:06.247Z,9.217
2022-10-23T00:34:06.272Z,9.261
2022-10-23T00:35:06.302Z,9.237
2022-10-23T00:36:06.327Z,9.295
2022-10-23T00:37:06.363Z,9.324
2022-10-23T00:38:06.392Z,9.28
2022-10-23T00:39:06.423Z,9.256
2022-10-23T00:40:06.456Z,9.226
2022-10-23T00:41:06.493Z,9.256
2022-10-23T00:42:06.523Z,9.197
2022-10-23T00:43:06.568Z,9.24
2022-10-23T00:44:06.577Z,9.182
2022-10-23T00:45:06.598Z,9.23
2022-10-23T00:46:06.643Z,9.201
2022-10-23T00:47:06.672Z,9.186
2022-10-23T00:48:06.706Z,9.176
2022-10-23T00:49:06.776Z,9.214
2022-10-23T00:50:06.762Z,9.2
2022-10-23T00:51:06.789Z,9.174
2022-10-23T00:52:06.818Z,9.1
2022-10-23T00:53:06.849Z,9.021
2022-10-23T00:54:23.999Z,9.115
2022-10-23T00:55:06.907Z,8.966
2022-10-23T00:56:06.940Z,9.011
2022-10-23T00:57:06.972Z,8.921
2022-10-23T00:58:07.000Z,8.936
2022-10-23T00:59:07.033Z,8.996
2022-10-23T01:00:07.064Z,8.936
2022-10-23T01:01:07.150Z,8.952
2022-10-23T01:02:07.273Z,8.968
2022-10-23T01:03:07.159Z,8.983
2022-10-23T01:04:07.194Z,8.968
2022-10-23T01:05:07.238Z,8.998
2022-10-23T01:06:07.260Z,9.013
2022-10-23T01:07:07.283Z,8.983
2022-10-23T01:08:07.313Z,9.042
2022-10-23T01:09:07.349Z,8.923
2022-10-23T01:10:07.375Z,8.923
2022-10-23T01:11:07.406Z,8.893
2022-10-23T01:12:07.438Z,8.678
2022-10-23T01:13:07.471Z,8.507
2022-10-23T01:14:07.506Z,8.384
2022-10-23T01:15:07.528Z,8.355
2022-10-23T01:16:07.560Z,8.34
2022-10-23T01:17:07.593Z,8.361
2022-10-23T01:18:07.626Z,8.342
2022-10-23T01:19:07.657Z,8.329
2022-10-23T01:20:07.683Z,8.279
2022-10-23T01:21:07.716Z,8.26
2022-10-23T01:22:07.755Z,8.247
2022-10-23T01:23:07.795Z,8.249
2022-10-23T01:24:07.825Z,8.201
2022-10-23T01:25:07.859Z,8.197
2022-10-23T01:26:07.900Z,8.243
2022-10-23T01:27:07.941Z,8.239
2022-10-23T01:28:07.972Z,8.244
2022-10-23T01:29:08.015Z,8.24
2022-10-23T01:30:08.058Z,8.256
2022-10-23T01:31:08.095Z,8.272
2022-10-23T01:32:08.133Z,8.255
2022-10-23T01:33:08.161Z,8.167
2022-10-23T01:34:08.197Z,8.163
2022-10-23T01:35:08.230Z,8.089
2022-10-23T01:36:08.271Z,8.089
2022-10-23T01:37:08.308Z,8.089
2022-10-23T01:38:08.348Z,8.115
2022-10-23T01:39:08.389Z,8.16
2022-10-23T01:40:08.428Z,8.201
2022-10-23T01:41:08.462Z,8.246
2022-10-23T01:42:08.499Z,8.261
2022-10-23T01:43:08.529Z,8.276
2022-10-23T01:44:08.571Z,8.193
2022-10-23T01:45:08.611Z,8.173
2022-10-23T01:46:08.639Z,8.139
2022-10-23T01:47:08.777Z,8.139
2022-10-23T01:48:08.727Z,8.13
2022-10-23T01:49:08.759Z,8.1
2022-10-23T01:50:08.798Z,8.096
2022-10-23T01:51:08.843Z,8.126
2022-10-23T01:52:08.883Z,8.072
2022-10-23T01:53:08.916Z,8.079
2022-10-23T01:54:08.957Z,8.079
2022-10-23T01:55:09.003Z,8.123
2022-10-23T01:56:09.043Z,8.154
2022-10-23T01:57:09.070Z,8.15
2022-10-23T01:58:09.095Z,8.195
2022-10-23T01:59:09.135Z,8.209
2022-10-23T02:00:09.175Z,8.239
2022-10-23T02:01:09.349Z,8.268
2022-10-23T02:02:09.415Z,8.345
2022-10-23T02:03:09.289Z,8.36
2022-10-23T02:04:09.305Z,8.36
2022-10-23T02:05:09.337Z,8.375
2022-10-23T02:06:09.360Z,8.365
2022-10-23T02:07:09.391Z,8.341
2022-10-23T02:08:09.426Z,8.356
2022-10-23T02:09:09.448Z,8.39
2022-10-23T02:10:09.478Z,8.37
2022-10-23T02:11:09.512Z,8.37
2022-10-23T02:12:09.557Z,8.37
2022-10-23T02:13:09.575Z,8.385
2022-10-23T02:14:09.607Z,8.399
2022-10-23T02:15:09.647Z,8.399
2022-10-23T02:16:09.691Z,8.414
2022-10-23T02:17:09.720Z,8.395
2022-10-23T02:18:09.750Z,8.428
2022-10-23T02:19:09.786Z,8.409
2022-10-23T02:20:09.834Z,8.395
2022-10-23T02:21:09.859Z,8.366
2022-10-23T02:22:09.888Z,8.322
2022-10-23T02:23:09.930Z,8.278
2022-10-23T02:24:09.972Z,8.249
2022-10-23T02:25:10.004Z,8.205
2022-10-23T02:26:10.038Z,8.205
2022-10-23T02:27:10.080Z,8.205
2022-10-23T02:28:10.119Z,8.22
2022-10-23T02:29:10.154Z,8.235
2022-10-23T02:30:10.171Z,8.215
2022-10-23T02:31:10.221Z,8.186
2022-10-23T02:32:10.257Z,8.167
2022-10-23T02:33:10.295Z,8.099
2022-10-23T02:34:10.321Z,8.055
2022-10-23T02:35:10.360Z,7.992
2022-10-23T02:36:10.408Z,7.962
2022-10-23T02:37:10.501Z,7.89
2022-10-23T02:38:10.467Z,7.856
2022-10-23T02:39:10.512Z,7.856
2022-10-23T02:40:10.552Z,7.856
2022-10-23T02:41:10.587Z,7.861
2022-10-23T02:42:10.620Z,7.846
2022-10-23T02:43:10.657Z,7.745
2022-10-23T02:44:10.711Z,7.707
2022-10-23T02:45:10.743Z,7.668
2022-10-23T02:46:10.781Z,7.668
2022-10-23T02:47:10.821Z,7.687
2022-10-23T02:48:10.850Z,7.682
2022-10-23T02:49:10.878Z,7.668
2022-10-23T02:50:10.905Z,7.625
2022-10-23T02:51:10.945Z,7.591
2022-10-23T02:52:10.989Z,7.591
2022-10-23T02:53:11.024Z,7.591
2022-10-23T02:54:11.066Z,7.572
2022-10-23T02:55:11.100Z,7.586
2022-10-23T02:56:11.144Z,7.572
2022-10-23T02:57:11.172Z,7.554
2022-10-23T02:58:11.196Z,7.583
2022-10-23T02:59:11.244Z,7.569
2022-10-23T03:00:11.279Z,7.584
2022-10-23T03:01:11.399Z,7.58
2022-10-23T03:02:11.468Z,7.565
2022-10-23T03:03:11.368Z,7.541
2022-10-23T03:04:11.407Z,7.556
2022-10-23T03:05:11.434Z,7.556
2022-10-23T03:06:11.463Z,7.571
2022-10-23T03:07:11.500Z,7.571
2022-10-23T03:08:11.549Z,7.556
2022-10-23T03:09:11.580Z,7.522
2022-10-23T03:10:11.623Z,7.484
2022-10-23T03:11:11.664Z,7.445
2022-10-23T03:12:11.700Z,7.416
2022-10-23T03:13:11.733Z,7.402
2022-10-23T03:14:11.762Z,7.372
2022-10-23T03:15:11.811Z,7.314
2022-10-23T03:16:11.850Z,7.319
2022-10-23T03:17:11.882Z,7.338
2022-10-23T03:18:11.908Z,7.338
2022-10-23T03:20:11.997Z,7.348
2022-10-23T03:21:12.028Z,7.348
2022-10-23T03:22:12.058Z,7.348
2022-10-23T03:23:12.102Z,7.276
2022-10-23T03:24:12.136Z,7.218
2022-10-23T03:25:12.170Z,7.233
2022-10-23T03:26:12.207Z,7.233
2022-10-23T03:27:12.249Z,7.199
2022-10-23T03:28:12.281Z,7.214
2022-10-23T03:29:12.359Z,7.228
2022-10-23T03:30:12.361Z,7.214
2022-10-23T03:31:12.393Z,7.199
2022-10-23T03:32:12.414Z,7.17
2022-10-23T03:33:12.449Z,7.107
2022-10-23T03:34:12.489Z,7.04
2022-10-23T03:35:12.535Z,6.986
2022-10-23T03:36:12.548Z,6.942
2022-10-23T03:37:12.586Z,6.912
2022-10-23T03:38:12.618Z,6.883
2022-10-23T03:39:12.662Z,6.913
2022-10-23T03:40:12.687Z,6.928
2022-10-23T03:41:12.722Z,6.928
2022-10-23T03:42:12.767Z,6.88
2022-10-23T03:43:12.804Z,6.851
2022-10-23T03:44:12.841Z,6.866
2022-10-23T03:45:12.878Z,6.881
2022-10-23T03:46:13.044Z,6.818
2022-10-23T03:47:12.958Z,6.803
2022-10-23T03:48:12.994Z,6.803
2022-10-23T03:49:13.040Z,6.749
2022-10-23T03:50:13.074Z,6.779
2022-10-23T03:51:13.104Z,6.808
2022-10-23T03:52:13.164Z,6.823
2022-10-23T03:53:13.184Z,6.819
2022-10-23T03:54:13.222Z,6.829
2022-10-23T03:55:13.257Z,6.829
2022-10-23T03:56:13.298Z,6.844
2022-10-23T03:57:13.339Z,6.791
2022-10-23T03:58:13.374Z,6.742
2022-10-23T03:59:13.406Z,6.678
2022-10-23T04:00:13.451Z,6.649
2022-10-23T04:01:13.576Z,6.649
2022-10-23T04:02:13.643Z,6.645
2022-10-23T04:03:13.558Z,6.602
2022-10-23T04:04:13.605Z,6.602
2022-10-23T04:05:13.649Z,6.617
2022-10-23T04:06:13.687Z,6.617
2022-10-23T04:07:13.730Z,6.574
2022-10-23T04:08:17.641Z,6.574
2022-10-23T04:10:13.842Z,6.53
2022-10-23T04:11:13.877Z,6.496
2022-10-23T04:12:13.921Z,6.394
2022-10-23T04:13:13.955Z,6.394
2022-10-23T04:14:13.981Z,6.409
2022-10-23T04:15:14.026Z,6.419
2022-10-23T04:16:14.066Z,6.448
2022-10-23T04:17:14.097Z,6.429
2022-10-23T04:18:14.136Z,6.41
2022-10-23T04:19:14.178Z,6.41
2022-10-23T04:20:14.211Z,6.333
2022-10-23T04:21:14.246Z,6.367
2022-10-23T04:22:14.286Z,6.367
2022-10-23T04:23:14.329Z,6.353
2022-10-23T04:24:14.358Z,6.338
2022-10-23T04:25:14.391Z,6.294
2022-10-23T04:26:14.424Z,6.28
2022-10-23T04:27:14.462Z,6.28
2022-10-23T04:28:14.493Z,6.246
2022-10-23T04:29:14.528Z,6.17
2022-10-23T04:30:14.548Z,6.17
2022-10-23T04:31:14.582Z,6.14
2022-10-23T04:32:14.614Z,6.106
2022-10-23T04:33:14.645Z,6.121
2022-10-23T04:34:14.685Z,6.122
2022-10-23T04:35:14.719Z,6.151
2022-10-23T04:36:14.761Z,6.166
2022-10-23T04:37:14.795Z,6.137
2022-10-23T04:38:14.819Z,6.065
2022-10-23T04:39:14.849Z,6.065
2022-10-23T04:40:14.880Z,6.08
2022-10-23T04:41:14.901Z,6.085
2022-10-23T04:42:14.994Z,6.099
2022-10-23T04:43:14.969Z,6.085
2022-10-23T04:44:15.003Z,6.075
2022-10-23T04:45:15.039Z,5.978
2022-10-23T04:46:15.066Z,5.9
2022-10-23T04:47:15.097Z,5.871
2022-10-23T04:48:15.134Z,5.842
2022-10-23T04:49:15.156Z,5.901
2022-10-23T04:50:15.183Z,5.96
2022-10-23T04:51:15.224Z,6.018
2022-10-23T04:52:15.260Z,6.033
2022-10-23T04:53:15.288Z,6.047
2022-10-23T04:54:15.323Z,6.038
2022-10-23T04:55:15.351Z,6.014
2022-10-23T04:56:15.381Z,5.971
2022-10-23T04:57:15.430Z,5.971
2022-10-23T04:58:15.459Z,5.985
2022-10-23T04:59:15.489Z,5.99
2022-10-23T05:00:15.537Z,5.975
2022-10-23T05:01:15.636Z,5.884
2022-10-23T05:02:15.595Z,5.865
2022-10-23T05:03:15.622Z,5.884
2022-10-23T05:04:15.662Z,5.899
2022-10-23T05:05:15.691Z,5.869
2022-10-23T05:06:15.721Z,5.811
2022-10-23T05:07:15.845Z,5.792
2022-10-23T05:08:18.049Z,5.806
2022-10-23T05:09:15.825Z,5.836
2022-10-23T05:10:15.857Z,5.85
2022-10-23T05:11:15.897Z,5.879
2022-10-23T05:12:15.918Z,5.899
2022-10-23T05:13:15.948Z,5.947
2022-10-23T05:14:20.568Z,5.957
2022-10-23T05:15:16.013Z,5.957
2022-10-23T05:16:16.052Z,5.914
2022-10-23T05:17:16.089Z,5.885
2022-10-23T05:18:16.113Z,5.899
2022-10-23T05:19:17.829Z,5.933
2022-10-23T05:20:16.182Z,5.933
2022-10-23T05:21:16.212Z,5.976
2022-10-23T05:22:16.248Z,5.986
2022-10-23T05:23:16.279Z,6.001
2022-10-23T05:24:16.311Z,6.034
2022-10-23T05:25:16.346Z,5.977
2022-10-23T05:26:16.381Z,5.977
2022-10-23T05:27:16.419Z,5.948
2022-10-23T05:28:16.454Z,5.919
2022-10-23T05:29:16.484Z,5.856
2022-10-23T05:30:16.514Z,5.885
2022-10-23T05:31:16.559Z,5.929
2022-10-23T05:32:16.668Z,5.972
2022-10-23T05:33:16.634Z,5.957
2022-10-23T05:34:16.678Z,5.929
2022-10-23T05:35:16.712Z,5.828
2022-10-23T05:36:16.738Z,5.77
2022-10-23T05:37:16.768Z,5.741
2022-10-23T05:38:16.801Z,5.707
2022-10-23T05:39:16.840Z,5.707
2022-10-23T05:40:16.867Z,5.707
2022-10-23T05:41:16.902Z,5.707
2022-10-23T05:42:16.931Z,5.722
2022-10-23T05:43:16.962Z,5.755
2022-10-23T05:44:16.993Z,5.741
2022-10-23T05:45:17.026Z,5.726
2022-10-23T05:46:17.076Z,5.726
2022-10-23T05:47:17.105Z,5.726
2022-10-23T05:49:17.173Z,5.649
2022-10-23T05:50:17.203Z,5.635
2022-10-23T05:51:17.234Z,5.635
2022-10-23T05:52:17.268Z,5.62
2022-10-23T05:53:17.296Z,5.635
2022-10-23T05:54:17.338Z,5.605
2022-10-23T05:55:17.372Z,5.591
2022-10-23T05:56:17.408Z,5.572
2022-10-23T05:58:17.462Z,5.529
2022-10-23T05:59:20.475Z,5.529
2022-10-23T06:00:17.515Z,5.499
2022-10-23T06:01:17.595Z,5.447
2022-10-23T06:02:17.621Z,5.408
2022-10-23T06:03:17.614Z,5.408
2022-10-23T06:04:17.638Z,5.364
2022-10-23T06:05:17.669Z,5.35
2022-10-23T06:06:17.703Z,5.32
2022-10-23T06:07:17.730Z,5.335
2022-10-23T06:08:17.767Z,5.335
2022-10-23T06:09:17.799Z,5.354
2022-10-23T06:10:17.831Z,5.369
2022-10-23T06:11:17.865Z,5.369
2022-10-23T06:12:17.898Z,5.383
2022-10-23T06:13:17.934Z,5.398
2022-10-23T06:14:17.973Z,5.413
2022-10-23T06:15:18.002Z,5.427
2022-10-23T06:16:18.037Z,5.457
2022-10-23T06:17:18.072Z,5.442
2022-10-23T06:18:18.108Z,5.461
2022-10-23T06:19:18.143Z,5.413
2022-10-23T06:20:18.173Z,5.417
2022-10-23T06:21:18.215Z,5.398
2022-10-23T06:23:18.272Z,5.354
2022-10-23T06:24:18.330Z,5.388
2022-10-23T06:25:18.338Z,5.373
2022-10-23T06:26:18.378Z,5.373
2022-10-23T06:27:18.415Z,5.388
2022-10-23T06:28:20.581Z,5.403
2022-10-23T06:29:18.493Z,5.447
2022-10-23T06:30:18.532Z,5.447
2022-10-23T06:31:18.622Z,5.447
2022-10-23T06:32:18.613Z,5.461
2022-10-23T06:33:18.645Z,5.427
2022-10-23T06:34:18.671Z,5.442
2022-10-23T06:35:18.703Z,5.505
2022-10-23T06:36:18.731Z,5.534
2022-10-23T06:37:18.757Z,5.549
2022-10-23T06:38:18.791Z,5.592
2022-10-23T06:39:18.818Z,5.626
2022-10-23T06:40:18.853Z,5.655
2022-10-23T06:41:18.890Z,5.698
2022-10-23T06:42:18.919Z,5.77
2022-10-23T06:43:18.950Z,5.775
2022-10-23T06:44:18.990Z,5.775
2022-10-23T06:45:19.027Z,5.775
2022-10-23T06:46:19.064Z,5.789
2022-10-23T06:47:19.102Z,5.775
2022-10-23T06:48:19.135Z,5.775
2022-10-23T06:49:19.163Z,5.789
2022-10-23T06:50:19.196Z,5.818
2022-10-23T06:51:19.216Z,5.996
2022-10-23T06:52:34.935Z,6.053
2022-10-23T06:53:19.282Z,6.101
2022-10-23T06:54:19.309Z,6.13
2022-10-23T06:55:19.343Z,6.13
2022-10-23T06:56:19.366Z,6.149
2022-10-23T06:57:19.406Z,6.149
2022-10-23T06:58:19.445Z,6.178
2022-10-23T06:59:19.481Z,6.178
2022-10-23T07:00:19.507Z,6.231
2022-10-23T07:01:19.816Z,6.25
2022-10-23T07:02:19.577Z,6.25
2022-10-23T07:03:19.604Z,6.322
2022-10-23T07:04:19.638Z,6.336
2022-10-23T07:05:19.667Z,6.37
2022-10-23T07:06:19.697Z,6.446
2022-10-23T07:07:19.731Z,6.489
2022-10-23T07:08:19.764Z,6.546
2022-10-23T07:09:19.786Z,6.595
2022-10-23T07:10:19.817Z,6.618
2022-10-23T07:11:19.860Z,6.647
2022-10-23T07:12:19.883Z,6.723
2022-10-23T07:13:19.916Z,6.823
2022-10-23T07:14:19.942Z,6.884
2022-10-23T07:15:19.976Z,6.946
2022-10-23T07:16:20.006Z,7.002
2022-10-23T07:17:20.033Z,7.035
2022-10-23T07:18:20.062Z,7.135
2022-10-23T07:19:20.090Z,7.221
2022-10-23T07:20:20.116Z,7.221
2022-10-23T07:21:20.154Z,7.277
2022-10-23T07:22:20.180Z,7.378
2022-10-23T07:23:20.211Z,7.411
2022-10-23T07:24:20.251Z,7.425
2022-10-23T07:25:20.284Z,7.468
2022-10-23T07:26:20.317Z,7.55
2022-10-23T07:27:20.344Z,7.608
2022-10-23T07:28:20.381Z,7.608
2022-10-23T07:29:20.412Z,7.671
2022-10-23T07:30:20.439Z,7.748
2022-10-23T07:31:24.307Z,7.715
2022-10-23T07:32:20.519Z,7.721
2022-10-23T07:33:20.546Z,7.711
2022-10-23T07:34:20.579Z,7.755
2022-10-23T07:35:20.607Z,7.751
2022-10-23T07:36:20.642Z,7.818
2022-10-23T07:37:20.664Z,7.818
2022-10-23T07:38:20.696Z,7.877
2022-10-23T07:39:20.733Z,7.863
2022-10-23T07:40:20.757Z,7.869
2022-10-23T07:41:20.787Z,7.898
2022-10-23T07:42:20.816Z,7.912
2022-10-23T07:43:21.078Z,7.976
2022-10-23T07:44:23.088Z,7.942
2022-10-23T07:45:20.921Z,8.053
2022-10-23T07:46:20.955Z,8.019
2022-10-23T07:47:20.987Z,8.048
2022-10-23T07:48:21.015Z,8.034
2022-10-23T07:49:21.058Z,8.131
2022-10-23T07:50:21.089Z,8.16
2022-10-23T07:51:21.119Z,8.16
2022-10-23T07:52:21.150Z,8.141
2022-10-23T07:53:21.179Z,8.19
2022-10-23T07:54:21.213Z,8.224
2022-10-23T07:55:21.244Z,8.253
2022-10-23T07:56:21.273Z,8.272
2022-10-23T07:57:21.310Z,8.316
2022-10-23T07:58:21.344Z,8.335
2022-10-23T07:59:21.376Z,8.288
2022-10-23T08:00:21.493Z,8.35
2022-10-23T08:01:21.487Z,8.355
2022-10-23T08:02:21.498Z,8.36
2022-10-23T08:03:21.522Z,8.346
2022-10-23T08:04:21.532Z,8.361
2022-10-23T08:05:21.570Z,8.341
2022-10-23T08:06:21.600Z,8.404
2022-10-23T08:07:21.638Z,8.433
2022-10-23T08:08:21.673Z,8.467
2022-10-23T08:09:21.704Z,8.467
2022-10-23T08:10:21.736Z,8.452
2022-10-23T08:11:21.764Z,8.481
2022-10-23T08:12:21.797Z,8.486
2022-10-23T08:13:21.823Z,8.515
2022-10-23T08:14:21.853Z,8.501
2022-10-23T08:15:21.897Z,8.544
2022-10-23T08:16:21.923Z,8.616
2022-10-23T08:17:24.046Z,8.688
2022-10-23T08:18:21.994Z,8.693
2022-10-23T08:19:22.021Z,8.679
2022-10-23T08:20:22.064Z,8.664
2022-10-23T08:21:22.090Z,8.65
2022-10-23T08:22:22.117Z,8.664
2022-10-23T08:23:22.154Z,8.722
2022-10-23T08:24:22.176Z,8.751
2022-10-23T08:25:25.028Z,8.784
2022-10-23T08:26:22.244Z,8.823
2022-10-23T08:27:22.270Z,8.823
2022-10-23T08:28:22.300Z,8.809
2022-10-23T08:29:22.333Z,8.814
2022-10-23T08:30:22.404Z,8.842
2022-10-23T08:31:22.404Z,8.857
2022-10-23T08:32:22.437Z,8.857
2022-10-23T08:33:22.473Z,8.842
2022-10-23T08:34:22.500Z,8.833
2022-10-23T08:35:22.530Z,8.953
2022-10-23T08:36:22.563Z,8.953
2022-10-23T08:37:22.594Z,8.939
2022-10-23T08:38:22.622Z,8.992
2022-10-23T08:39:22.654Z,9.04
2022-10-23T08:40:22.686Z,9.025
2022-10-23T08:41:22.723Z,9.04
2022-10-23T08:42:22.756Z,9.025
2022-10-23T08:43:22.788Z,9.131
2022-10-23T08:44:22.820Z,9.194
2022-10-23T08:45:22.857Z,9.179
2022-10-23T08:46:22.886Z,9.199
2022-10-23T08:47:22.921Z,9.232
2022-10-23T08:48:22.966Z,9.223
2022-10-23T08:49:22.976Z,9.223
2022-10-23T08:50:23.062Z,9.247
2022-10-23T08:51:23.044Z,9.242
2022-10-23T08:52:23.072Z,9.228
2022-10-23T08:53:23.105Z,9.281
2022-10-23T08:54:23.140Z,9.295
2022-10-23T08:55:23.165Z,9.339
2022-10-23T08:56:23.197Z,9.324
2022-10-23T08:57:23.223Z,9.339
2022-10-23T08:58:23.250Z,9.367
2022-10-23T08:59:23.282Z,9.363
2022-10-23T09:00:23.318Z,9.372
2022-10-23T09:01:23.485Z,9.396
2022-10-23T09:02:23.466Z,9.367
2022-10-23T09:03:23.406Z,9.415
2022-10-23T09:04:23.441Z,9.415
2022-10-23T09:05:23.479Z,9.415
2022-10-23T09:06:23.505Z,9.473
2022-10-23T09:07:23.535Z,9.516
2022-10-23T09:08:23.573Z,9.535
2022-10-23T09:09:23.597Z,9.555
2022-10-23T09:10:23.630Z,9.641
2022-10-23T09:11:23.656Z,9.685
2022-10-23T09:12:23.695Z,9.743
2022-10-23T09:13:23.728Z,9.738
2022-10-23T09:14:23.751Z,9.819
2022-10-23T09:15:23.782Z,9.824
2022-10-23T09:16:23.808Z,9.799
2022-10-23T09:17:23.845Z,9.909
2022-10-23T09:18:23.883Z,9.895
2022-10-23T09:19:23.920Z,9.924
2022-10-23T09:20:23.949Z,9.923
2022-10-23T09:21:23.980Z,9.952
2022-10-23T09:22:24.006Z,10.02
2022-10-23T09:23:24.041Z,10.11
2022-10-23T09:24:24.071Z,10.12
2022-10-23T09:25:24.096Z,10.1
2022-10-23T09:26:24.125Z,10.15
2022-10-23T09:27:24.161Z,10.26
2022-10-23T09:28:24.198Z,10.25
2022-10-23T09:29:24.236Z,10.28
2022-10-23T09:30:24.260Z,10.32
2022-10-23T09:31:24.293Z,10.35
2022-10-23T09:32:24.313Z,10.44
2022-10-23T09:33:24.351Z,10.4
2022-10-23T09:34:24.382Z,10.32
2022-10-23T09:35:24.415Z,10.38
2022-10-23T09:36:24.443Z,10.45
2022-10-23T09:37:24.474Z,10.53
2022-10-23T09:38:24.501Z,10.52
2022-10-23T09:39:24.532Z,10.57
2022-10-23T09:40:24.560Z,10.65
2022-10-23T09:41:24.591Z,10.64
2022-10-23T09:42:24.624Z,10.52
2022-10-23T09:43:24.644Z,10.6
2022-10-23T09:44:24.676Z,10.58
2022-10-23T09:45:24.702Z,10.58
2022-10-23T09:46:24.734Z,10.6
2022-10-23T09:47:24.775Z,10.73
2022-10-23T09:48:24.802Z,10.78
2022-10-23T09:49:24.833Z,10.81
2022-10-23T09:50:24.874Z,10.85
2022-10-23T09:51:24.911Z,10.96
2022-10-23T09:52:24.938Z,11.01
2022-10-23T09:53:24.982Z,11.05
2022-10-23T09:54:25.016Z,11.13
2022-10-23T09:55:25.055Z,11.2
2022-10-23T09:56:25.083Z,11.34
2022-10-23T09:57:25.119Z,11.38
2022-10-23T09:58:25.156Z,11.39
2022-10-23T09:59:25.194Z,11.41
2022-10-23T10:00:25.229Z,11.53
2022-10-23T10:01:25.376Z,11.52
2022-10-23T10:02:25.293Z,11.57
2022-10-23T10:03:25.326Z,11.69
2022-10-23T10:04:25.355Z,11.76
2022-10-23T10:05:25.380Z,11.76
2022-10-23T10:06:25.407Z,11.93
2022-10-23T10:07:25.438Z,12.03
2022-10-23T10:08:25.464Z,12.01
2022-10-23T10:09:25.501Z,12.01
2022-10-23T10:10:25.545Z,11.98
2022-10-23T10:11:25.570Z,11.92
2022-10-23T10:12:25.604Z,12.05
2022-10-23T10:13:25.642Z,12.12
2022-10-23T10:14:25.669Z,12.18
2022-10-23T10:15:25.709Z,12.3
2022-10-23T10:16:25.802Z,12.27
2022-10-23T10:17:25.782Z,12.23
2022-10-23T10:18:25.811Z,12.25
2022-10-23T10:19:25.852Z,12.42
2022-10-23T10:20:25.878Z,12.42
2022-10-23T10:21:25.913Z,12.48
2022-10-23T10:22:25.952Z,12.6
2022-10-23T10:23:25.981Z,12.8
2022-10-23T10:24:26.016Z,12.87
2022-10-23T10:25:26.046Z,12.91
2022-10-23T10:26:26.120Z,12.99
2022-10-23T10:27:26.117Z,12.86
2022-10-23T10:28:26.154Z,12.76
2022-10-23T10:29:26.179Z,12.82
2022-10-23T10:30:26.216Z,12.96
2022-10-23T10:31:26.270Z,12.99
2022-10-23T10:32:26.279Z,13.13
2022-10-23T10:33:26.304Z,13.15
2022-10-23T10:34:26.330Z,13.13
2022-10-23T10:35:26.364Z,13.14
2022-10-23T10:37:26.433Z,13.17
2022-10-23T10:38:26.459Z,13.21
2022-10-23T10:39:26.489Z,13.28
2022-10-23T10:40:26.515Z,13.3
2022-10-23T10:41:26.547Z,13.4
2022-10-23T10:42:26.575Z,13.37
2022-10-23T10:43:26.601Z,13.41
2022-10-23T10:44:26.633Z,13.35
2022-10-23T10:45:26.665Z,13.32
2022-10-23T10:46:26.699Z,13.41
2022-10-23T10:47:26.728Z,13.58
2022-10-23T10:48:26.757Z,13.6
2022-10-23T10:49:26.788Z,13.54
2022-10-23T10:50:26.822Z,13.36
2022-10-23T10:51:26.859Z,13.3
2022-10-23T10:52:26.891Z,13.26
2022-10-23T10:53:26.920Z,13.13
2022-10-23T10:54:26.948Z,13.08
2022-10-23T10:55:26.985Z,12.97
2022-10-23T10:56:27.019Z,12.89
2022-10-23T10:57:27.057Z,13.05
2022-10-23T10:58:27.085Z,13.1
2022-10-23T10:59:27.117Z,13.15
2022-10-23T11:00:27.149Z,13.2
2022-10-23T11:01:27.603Z,13.12
2022-10-23T11:02:27.203Z,13.07
2022-10-23T11:03:27.229Z,12.94
2022-10-23T11:04:27.257Z,12.86
2022-10-23T11:05:27.297Z,12.82
2022-10-23T11:06:27.329Z,12.77
2022-10-23T11:07:27.348Z,12.67
2022-10-23T11:08:27.370Z,12.73
2022-10-23T11:09:27.403Z,12.77
2022-10-23T11:10:27.430Z,12.88
2022-10-23T11:11:27.452Z,12.67
2022-10-23T11:12:27.483Z,12.72
2022-10-23T11:13:27.512Z,12.66
2022-10-23T11:14:27.547Z,12.66
2022-10-23T11:15:27.582Z,12.58
2022-10-23T11:16:27.615Z,12.66
2022-10-23T11:17:27.645Z,12.59
2022-10-23T11:18:27.673Z,12.52
2022-10-23T11:19:27.712Z,12.57
2022-10-23T11:20:27.755Z,12.52
2022-10-23T11:21:27.771Z,12.63
2022-10-23T11:22:27.801Z,12.56
2022-10-23T11:23:27.827Z,12.58
2022-10-23T11:24:27.855Z,12.58
2022-10-23T11:25:27.879Z,12.64
2022-10-23T11:26:27.915Z,12.69
2022-10-23T11:27:27.942Z,12.66
2022-10-23T11:28:27.968Z,12.71
2022-10-23T11:29:28.009Z,12.59
2022-10-23T11:30:28.031Z,12.55
2022-10-23T11:31:28.055Z,12.36
2022-10-23T11:32:28.112Z,12.33
2022-10-23T11:33:28.114Z,12.36
2022-10-23T11:34:28.143Z,12.42
2022-10-23T11:35:28.175Z,12.35
2022-10-23T11:36:28.214Z,12.4
2022-10-23T11:37:28.241Z,12.46
2022-10-23T11:38:28.261Z,12.51
2022-10-23T11:39:28.297Z,12.53
2022-10-23T11:40:28.334Z,12.58
2022-10-23T11:41:28.365Z,12.56
2022-10-23T11:42:28.390Z,12.56
2022-10-23T11:43:28.414Z,12.68
2022-10-23T11:44:28.448Z,12.6
2022-10-23T11:45:28.492Z,12.49
2022-10-23T11:46:28.542Z,12.43
2022-10-23T11:47:28.549Z,12.41
2022-10-23T11:48:28.586Z,12.5
2022-10-23T11:49:28.614Z,12.46
2022-10-23T11:50:28.647Z,12.41
2022-10-23T11:51:28.697Z,12.53
2022-10-23T11:52:28.714Z,12.73
2022-10-23T11:53:28.751Z,12.86
2022-10-23T11:54:28.777Z,12.84
2022-10-23T11:55:28.808Z,12.69
2022-10-23T11:56:28.838Z,12.64
2022-10-23T11:58:28.896Z,12.48
2022-10-23T11:59:28.940Z,12.47
2022-10-23T12:00:28.962Z,12.47
2022-10-23T12:01:29.070Z,12.54
2022-10-23T12:02:29.129Z,12.59
2022-10-23T12:03:29.059Z,12.47
2022-10-23T12:04:29.093Z,12.47
2022-10-23T12:05:29.129Z,12.65
2022-10-23T12:06:29.149Z,12.66
2022-10-23T12:07:29.186Z,12.62
2022-10-23T12:08:29.224Z,12.38
2022-10-23T12:09:29.248Z,12.34
2022-10-23T12:10:29.275Z,12.29
2022-10-23T12:11:29.305Z,12.32
2022-10-23T12:12:29.337Z,12.12
2022-10-23T12:13:29.371Z,12.11
2022-10-23T12:14:29.407Z,12.18
2022-10-23T12:15:29.442Z,12.2
2022-10-23T12:16:29.480Z,12.25
2022-10-23T12:17:29.501Z,12.29
2022-10-23T12:18:29.525Z,12.1
2022-10-23T12:19:29.564Z,12.12
2022-10-23T12:20:29.584Z,12.1
2022-10-23T12:21:29.620Z,12.05
2022-10-23T12:22:29.699Z,12.1
2022-10-23T12:23:29.684Z,12.14
2022-10-23T12:24:29.717Z,12.12
2022-10-23T12:25:29.750Z,12.06
2022-10-23T12:26:29.765Z,12.06
2022-10-23T12:27:29.807Z,11.98
2022-10-23T12:28:29.840Z,12.05
2022-10-23T12:29:29.879Z,12.06
2022-10-23T12:30:29.909Z,12.1
2022-10-23T12:31:29.950Z,12.1
2022-10-23T12:32:29.986Z,12.04
2022-10-23T12:33:30.016Z,12.04
2022-10-23T12:34:30.046Z,12.06
2022-10-23T12:35:30.074Z,12.2
2022-10-23T12:36:30.113Z,12.12
2022-10-23T12:37:30.144Z,12.03
2022-10-23T12:38:32.599Z,11.9
2022-10-23T12:39:30.212Z,12.01
2022-10-23T12:40:30.255Z,11.94
2022-10-23T12:41:30.278Z,11.88
2022-10-23T12:42:30.313Z,11.9
2022-10-23T12:43:30.341Z,11.97
2022-10-23T12:44:30.371Z,12.02
2022-10-23T12:45:30.410Z,11.9
2022-10-23T12:46:30.437Z,11.96
2022-10-23T12:47:30.543Z,11.92
2022-10-23T12:48:30.507Z,11.99
2022-10-23T12:49:30.529Z,12
2022-10-23T12:50:30.561Z,11.85
2022-10-23T12:51:30.593Z,11.83
2022-10-23T12:52:30.616Z,11.82
2022-10-23T12:53:30.649Z,11.83
2022-10-23T12:54:30.676Z,11.8
2022-10-23T12:55:33.539Z,11.7
2022-10-23T12:56:33.004Z,11.73
2022-10-23T12:57:30.779Z,11.93
2022-10-23T12:58:30.796Z,11.93
2022-10-23T12:59:30.825Z,11.77
2022-10-23T13:00:30.859Z,11.63
2022-10-23T13:01:30.975Z,11.59
2022-10-23T13:02:31.107Z,11.59